Time;durP1;ratioP1;P1;durP2;ratioP2;P2;SDS_P1;SDS_P2;PMS_P1;PMS_P2;Temp;Humidity;BMP_temperature;BMP_pressure;BME280_temperature;BME280_humidity;BME280_pressure;Samples;Min_cycle;Max_cycle;Signal;HPM_P1;HPM_P2
2022/03/22 00:00:21;;;;;;;18.38;12.35;;;11.80;71.30;;;;;;2071175;28;20443;-86
2022/03/22 00:01:24;;;;;;;19.60;12.70;;;11.70;71.20;;;;;;2068066;28;20038;-86
2022/03/22 00:02:25;;;;;;;20.48;13.52;;;11.70;71.20;;;;;;2073037;28;20574;-86
2022/03/22 00:03:26;;;;;;;19.85;13.77;;;11.70;71.20;;;;;;2069963;28;20030;-86
2022/03/22 00:04:27;;;;;;;19.13;13.32;;;11.80;71.20;;;;;;2061085;28;20066;-86
2022/03/22 00:05:28;;;;;;;19.48;12.88;;;11.80;71.10;;;;;;2073448;28;20026;-86
2022/03/22 00:06:31;;;;;;;19.98;13.23;;;11.80;70.90;;;;;;2072490;28;20030;-86
2022/03/22 00:07:33;;;;;;;18.98;12.85;;;11.80;70.90;;;;;;2072708;28;20064;-86
2022/03/22 00:08:34;;;;;;;22.25;13.95;;;11.80;70.80;;;;;;2073477;28;20014;-86
2022/03/22 00:09:36;;;;;;;20.70;14.27;;;11.80;70.80;;;;;;2071962;28;20111;-86
2022/03/22 00:10:38;;;;;;;23.13;15.30;;;11.80;70.80;;;;;;2072934;28;20053;-86
2022/03/22 00:11:38;;;;;;;21.52;13.93;;;11.90;70.70;;;;;;2063269;28;20053;-86
2022/03/22 00:12:39;;;;;;;21.42;14.13;;;11.90;70.60;;;;;;2061707;28;20464;-86
2022/03/22 00:13:44;;;;;;;21.10;13.98;;;11.90;70.50;;;;;;2063854;28;20037;-86
2022/03/22 00:14:44;;;;;;;18.20;12.32;;;11.90;70.50;;;;;;2073841;28;20022;-86
2022/03/22 00:15:45;;;;;;;17.70;12.63;;;11.90;70.40;;;;;;2079202;28;20139;-86
2022/03/22 00:16:46;;;;;;;19.10;13.20;;;11.90;70.40;;;;;;2070463;28;20029;-86
2022/03/22 00:17:47;;;;;;;19.20;12.73;;;11.90;70.40;;;;;;2057203;28;20053;-86
2022/03/22 00:18:48;;;;;;;17.98;12.60;;;12.00;71.10;;;;;;2048842;28;20039;-86
2022/03/22 00:19:48;;;;;;;18.42;11.80;;;11.90;70.40;;;;;;2064665;28;20066;-86
2022/03/22 00:20:49;;;;;;;18.52;12.70;;;11.90;70.40;;;;;;2057082;28;20047;-86
2022/03/22 00:21:50;;;;;;;17.88;13.02;;;11.90;70.40;;;;;;2055985;28;20584;-86
2022/03/22 00:22:51;;;;;;;18.42;12.00;;;11.90;70.50;;;;;;2065297;28;20030;-86
2022/03/22 00:23:52;;;;;;;17.50;11.55;;;11.90;70.50;;;;;;2071502;28;20120;-86
2022/03/22 00:24:54;;;;;;;17.67;12.07;;;11.90;70.50;;;;;;2063075;28;20477;-86
2022/03/22 00:25:54;;;;;;;17.98;11.95;;;11.90;70.50;;;;;;2073336;28;20060;-86
2022/03/22 00:26:56;;;;;;;19.13;12.10;;;11.90;70.50;;;;;;2073325;28;20528;-86
2022/03/22 00:27:57;;;;;;;17.20;11.68;;;11.90;70.50;;;;;;2065085;28;20030;-86
2022/03/22 00:28:59;;;;;;;18.05;11.43;;;11.90;70.50;;;;;;2064960;28;20026;-86
2022/03/22 00:30:01;;;;;;;17.10;12.02;;;11.90;70.60;;;;;;2071573;28;20378;-86
2022/03/22 00:31:02;;;;;;;16.70;11.80;;;11.90;70.60;;;;;;2072219;28;20034;-85
2022/03/22 00:32:08;;;;;;;17.42;11.57;;;11.80;70.60;;;;;;2071826;28;20057;-86
2022/03/22 00:33:09;;;;;;;16.23;11.45;;;11.80;70.60;;;;;;2058881;28;20521;-86
2022/03/22 00:34:13;;;;;;;18.38;12.02;;;11.80;70.70;;;;;;2065000;28;20112;-86
2022/03/22 00:35:18;;;;;;;15.38;11.68;;;11.70;70.70;;;;;;2057037;28;20798;-86
2022/03/22 00:36:18;;;;;;;17.33;11.93;;;11.80;70.80;;;;;;2062789;28;20132;-86
2022/03/22 00:37:19;;;;;;;15.85;11.15;;;11.70;70.90;;;;;;2072818;28;20434;-86
2022/03/22 00:38:20;;;;;;;17.30;12.02;;;11.70;70.80;;;;;;2071817;28;20030;-86
2022/03/22 00:39:20;;;;;;;17.65;11.15;;;11.70;70.80;;;;;;2072368;28;20079;-86
2022/03/22 00:40:22;;;;;;;17.33;11.43;;;11.70;70.80;;;;;;2063565;28;20097;-86
2022/03/22 00:41:23;;;;;;;16.15;11.90;;;11.70;70.80;;;;;;2061092;28;20041;-86
2022/03/22 00:42:23;;;;;;;17.98;11.20;;;11.70;70.80;;;;;;2071894;28;20469;-86
2022/03/22 00:43:24;;;;;;;19.70;11.75;;;11.70;70.80;;;;;;2072661;28;20069;-86
2022/03/22 00:44:25;;;;;;;16.25;10.50;;;11.70;70.90;;;;;;2072571;28;20056;-86
2022/03/22 00:45:28;;;;;;;15.23;10.80;;;11.70;70.90;;;;;;2063876;28;20041;-86
2022/03/22 00:46:29;;;;;;;18.88;11.32;;;11.70;70.90;;;;;;2071093;28;20040;-86
2022/03/22 00:47:30;;;;;;;15.80;10.85;;;11.60;70.90;;;;;;2072148;28;20072;-86
2022/03/22 00:48:31;;;;;;;17.65;11.23;;;11.60;70.90;;;;;;2073159;28;20492;-86
2022/03/22 00:49:33;;;;;;;17.63;11.43;;;11.70;71.00;;;;;;2071018;28;20088;-86
2022/03/22 00:50:36;;;;;;;17.10;11.38;;;11.60;70.90;;;;;;2067935;28;20986;-86
2022/03/22 00:51:37;;;;;;;17.40;12.18;;;11.60;70.90;;;;;;2072951;28;20029;-86
2022/03/22 00:52:38;;;;;;;16.60;11.07;;;11.60;71.00;;;;;;2063704;28;20042;-86
2022/03/22 00:53:40;;;;;;;17.73;11.60;;;11.60;71.60;;;;;;2053603;28;20501;-85
2022/03/22 00:54:40;;;;;;;15.60;10.85;;;11.60;70.90;;;;;;2068403;28;20133;-85
2022/03/22 00:55:41;;;;;;;17.35;10.82;;;11.60;71.00;;;;;;2073036;28;20026;-86
2022/03/22 00:56:42;;;;;;;16.27;11.02;;;11.60;71.00;;;;;;2073062;28;20040;-86
2022/03/22 00:57:44;;;;;;;17.10;11.85;;;11.60;71.00;;;;;;2071619;28;20121;-86
2022/03/22 00:58:44;;;;;;;15.38;11.40;;;11.60;71.00;;;;;;2065139;28;20058;-86
2022/03/22 01:00:05;;;;;;;15.93;10.77;;;11.60;71.00;;;;;;2071884;28;20030;-85
2022/03/22 01:01:05;;;;;;;15.55;10.18;;;11.60;71.10;;;;;;2073222;28;20427;-86
2022/03/22 01:02:08;;;;;;;16.25;10.60;;;11.50;71.00;;;;;;2071250;28;20034;-86
2022/03/22 01:03:09;;;;;;;17.10;11.38;;;11.50;71.10;;;;;;2070175;28;22201;-86
2022/03/22 01:04:10;;;;;;;17.38;11.63;;;11.50;71.10;;;;;;2072486;28;20022;-86
2022/03/22 01:05:14;;;;;;;16.27;11.25;;;11.50;71.10;;;;;;2072797;28;20026;-85
2022/03/22 01:06:15;;;;;;;16.02;10.95;;;11.50;71.10;;;;;;2069248;28;20034;-86
2022/03/22 01:07:17;;;;;;;15.75;10.80;;;11.50;71.20;;;;;;2065063;28;20029;-85
2022/03/22 01:08:18;;;;;;;15.80;10.52;;;11.50;71.20;;;;;;2063738;28;20165;-85
2022/03/22 01:09:18;;;;;;;15.88;10.75;;;11.40;71.10;;;;;;2059696;28;20038;-86
2022/03/22 01:10:21;;;;;;;15.52;10.85;;;11.40;71.80;;;;;;2059082;28;20031;-86
2022/03/22 01:11:21;;;;;;;16.45;11.10;;;11.40;71.20;;;;;;2072898;28;20097;-86
2022/03/22 01:12:22;;;;;;;16.98;10.93;;;11.40;71.20;;;;;;2072390;28;20025;-86
2022/03/22 01:13:25;;;;;;;14.88;10.73;;;11.40;71.30;;;;;;2056866;28;20035;-86
2022/03/22 01:14:27;;;;;;;17.65;11.63;;;11.40;71.30;;;;;;2063902;28;20078;-86
2022/03/22 01:15:33;;;;;;;17.25;11.73;;;11.40;71.90;;;;;;2065895;28;20077;-86
2022/03/22 01:16:34;;;;;;;16.65;11.52;;;11.30;71.20;;;;;;2065320;28;20030;-86
2022/03/22 01:17:36;;;;;;;17.48;11.73;;;11.40;71.30;;;;;;2071768;28;20064;-85
2022/03/22 01:18:37;;;;;;;16.13;11.07;;;11.40;71.30;;;;;;2071525;28;20404;-86
2022/03/22 01:19:39;;;;;;;16.50;11.13;;;11.40;71.30;;;;;;2060464;28;20047;-85
2022/03/22 01:20:42;;;;;;;15.38;10.60;;;11.40;71.40;;;;;;2062282;28;20034;-86
2022/03/22 01:21:43;;;;;;;16.02;11.38;;;11.30;71.30;;;;;;2065009;28;20030;-85
2022/03/22 01:22:46;;;;;;;16.30;11.18;;;11.30;71.40;;;;;;2070521;28;20447;-86
2022/03/22 01:23:46;;;;;;;15.93;10.45;;;11.30;71.40;;;;;;2065039;28;20034;-86
2022/03/22 01:24:48;;;;;;;17.88;11.80;;;11.30;71.40;;;;;;2067487;28;20080;-86
2022/03/22 01:25:49;;;;;;;15.90;10.98;;;11.30;71.50;;;;;;2073219;28;20037;-86
2022/03/22 01:26:50;;;;;;;16.48;10.60;;;11.30;71.50;;;;;;2071510;28;20125;-86
2022/03/22 01:27:51;;;;;;;14.45;10.00;;;11.30;71.50;;;;;;2072840;28;20100;-86
2022/03/22 01:28:51;;;;;;;14.95;10.30;;;11.30;71.50;;;;;;2064061;28;20027;-85
2022/03/22 01:29:52;;;;;;;15.63;10.35;;;11.30;71.50;;;;;;2061640;28;20034;-86
2022/03/22 01:30:53;;;;;;;15.80;11.00;;;11.30;71.50;;;;;;2061135;28;20169;-86
2022/03/22 01:31:55;;;;;;;15.20;10.20;;;11.20;71.50;;;;;;2056648;28;20026;-86
2022/03/22 01:32:56;;;;;;;16.38;10.95;;;11.20;71.50;;;;;;2060688;28;20042;-85
2022/03/22 01:33:56;;;;;;;17.70;11.98;;;11.20;71.50;;;;;;2065204;28;20084;-86
2022/03/22 01:34:57;;;;;;;16.02;10.90;;;11.30;71.50;;;;;;2071465;28;20091;-86
2022/03/22 01:35:58;;;;;;;16.88;10.85;;;11.20;71.40;;;;;;2062010;28;20030;-85
2022/03/22 01:36:59;;;;;;;17.23;11.07;;;11.20;71.40;;;;;;2054995;28;20587;-86
2022/03/22 01:37:59;;;;;;;16.55;10.45;;;11.20;71.40;;;;;;2069655;28;20558;-86
2022/03/22 01:39:00;;;;;;;14.90;10.57;;;11.30;71.50;;;;;;2064481;28;20038;-86
2022/03/22 01:40:01;;;;;;;15.70;10.95;;;11.20;71.50;;;;;;2053810;28;20035;-86
2022/03/22 01:41:02;;;;;;;14.75;10.23;;;11.20;71.60;;;;;;2056406;28;20058;-86
2022/03/22 01:42:04;;;;;;;17.10;11.60;;;11.20;71.60;;;;;;2067460;28;20394;-86
2022/03/22 01:43:05;;;;;;;15.23;10.35;;;11.20;71.70;;;;;;2065897;28;20524;-85
2022/03/22 01:44:06;;;;;;;16.05;10.90;;;11.20;71.70;;;;;;2072075;28;20124;-86
2022/03/22 01:45:09;;;;;;;15.40;11.15;;;11.20;71.70;;;;;;2071335;28;20022;-86
2022/03/22 01:46:12;;;;;;;16.35;11.15;;;11.20;71.70;;;;;;2071665;28;20036;-86
2022/03/22 01:47:19;;;;;;;15.23;11.10;;;11.10;71.70;;;;;;2072803;28;20026;-86
2022/03/22 01:48:20;;;;;;;15.00;10.25;;;11.10;71.70;;;;;;2072793;28;20208;-86
2022/03/22 01:49:22;;;;;;;18.85;11.00;;;11.10;71.80;;;;;;2063420;28;20030;-86
2022/03/22 01:50:23;;;;;;;15.65;10.82;;;11.10;71.80;;;;;;2056594;28;20350;-86
2022/03/22 01:51:24;;;;;;;15.85;10.57;;;11.10;71.80;;;;;;2068002;28;20030;-85
2022/03/22 01:52:25;;;;;;;16.45;11.07;;;11.10;71.80;;;;;;2066709;28;20035;-86
2022/03/22 01:53:27;;;;;;;15.88;10.63;;;11.10;71.80;;;;;;2069098;28;20030;-86
2022/03/22 01:54:28;;;;;;;15.40;10.20;;;11.10;71.90;;;;;;2071126;28;20373;-86
2022/03/22 01:55:29;;;;;;;16.45;10.80;;;11.10;72.00;;;;;;2073063;28;20079;-86
2022/03/22 01:56:30;;;;;;;17.35;10.80;;;11.00;71.90;;;;;;2070725;28;20068;-86
2022/03/22 01:57:33;;;;;;;13.15;9.82;;;11.00;72.10;;;;;;2063907;28;20034;-86
2022/03/22 01:58:34;;;;;;;15.95;10.27;;;11.00;72.10;;;;;;2064009;28;20485;-86
2022/03/22 01:59:34;;;;;;;14.73;10.55;;;11.00;72.10;;;;;;2064843;28;20041;-86
2022/03/22 02:00:35;;;;;;;15.25;10.43;;;10.90;72.20;;;;;;2056191;28;20580;-86
2022/03/22 02:05:55;;;;;;;14.02;9.45;;;10.90;72.30;;;;;;2073047;28;20076;-85
2022/03/22 02:06:58;;;;;;;15.30;9.98;;;10.90;72.30;;;;;;2073502;28;20077;-86
2022/03/22 02:08:01;;;;;;;13.93;9.75;;;10.80;72.30;;;;;;2073570;28;20121;-86
2022/03/22 02:09:03;;;;;;;14.07;9.30;;;10.90;72.30;;;;;;2066067;28;20172;-86
2022/03/22 02:10:04;;;;;;;14.88;9.98;;;10.90;72.40;;;;;;2064938;28;20386;-86
2022/03/22 02:11:05;;;;;;;14.57;9.77;;;10.80;72.40;;;;;;2058024;28;20042;-86
2022/03/22 02:12:06;;;;;;;14.60;9.93;;;10.80;72.40;;;;;;2057769;28;20114;-86
2022/03/22 02:13:07;;;;;;;14.52;10.20;;;10.80;72.40;;;;;;2050094;28;20071;-86
2022/03/22 02:14:09;;;;;;;15.05;9.90;;;10.80;72.40;;;;;;2064216;28;20025;-86
2022/03/22 02:15:11;;;;;;;15.77;10.50;;;10.80;72.40;;;;;;2070054;28;20036;-86
2022/03/22 02:16:12;;;;;;;15.57;10.45;;;10.80;72.30;;;;;;2065535;28;20033;-85
2022/03/22 02:17:13;;;;;;;14.95;9.88;;;10.80;72.30;;;;;;2073142;28;20120;-86
2022/03/22 02:18:15;;;;;;;15.30;10.15;;;10.80;72.30;;;;;;2066745;28;20539;-86
2022/03/22 02:19:16;;;;;;;16.02;10.27;;;10.80;72.30;;;;;;2058170;28;20497;-86
2022/03/22 02:20:18;;;;;;;15.57;10.90;;;10.80;72.30;;;;;;2067722;28;20027;-86
2022/03/22 02:21:20;;;;;;;14.27;10.48;;;10.80;72.30;;;;;;2073961;28;20044;-86
2022/03/22 02:22:28;;;;;;;15.95;10.90;;;10.80;72.30;;;;;;2065900;28;20033;-86
2022/03/22 02:23:54;;;;;;;15.15;10.20;;;10.80;72.40;;;;;;2067580;28;20101;-86
2022/03/22 02:24:55;;;;;;;15.88;10.43;;;10.80;72.50;;;;;;2064116;28;20040;-85
2022/03/22 02:25:56;;;;;;;14.40;10.57;;;10.70;73.10;;;;;;2053162;28;20031;-86
2022/03/22 02:26:56;;;;;;;17.02;10.80;;;10.70;72.50;;;;;;2048730;28;20035;-85
2022/03/22 02:27:57;;;;;;;15.65;10.43;;;10.70;72.50;;;;;;2057039;28;20580;-86
2022/03/22 02:28:59;;;;;;;15.93;10.18;;;10.70;72.50;;;;;;2066102;28;20030;-86
2022/03/22 02:30:00;;;;;;;16.08;10.40;;;10.70;72.50;;;;;;2068817;28;20400;-86
2022/03/22 02:31:01;;;;;;;16.27;10.75;;;10.70;72.40;;;;;;2074775;28;20040;-86
2022/03/22 02:32:03;;;;;;;14.25;9.93;;;10.70;72.40;;;;;;2073233;28;20041;-85
2022/03/22 02:33:04;;;;;;;16.33;11.05;;;10.80;72.40;;;;;;2073170;28;20104;-85
2022/03/22 02:34:05;;;;;;;15.35;10.45;;;10.80;72.40;;;;;;2072678;28;20033;-86
2022/03/22 02:35:07;;;;;;;17.63;10.27;;;10.80;72.40;;;;;;2068847;28;20479;-86
2022/03/22 02:36:08;;;;;;;16.05;10.60;;;10.80;72.30;;;;;;2072989;28;20035;-86
2022/03/22 02:37:08;;;;;;;15.57;10.82;;;10.80;72.30;;;;;;2064963;28;20023;-86
2022/03/22 02:38:10;;;;;;;13.95;10.18;;;10.80;72.30;;;;;;2064862;28;20119;-85
2022/03/22 02:39:11;;;;;;;16.20;10.55;;;10.80;72.30;;;;;;2073702;28;20061;-85
2022/03/22 02:40:13;;;;;;;15.40;10.50;;;10.80;72.30;;;;;;2065035;28;20030;-86
2022/03/22 02:41:19;;;;;;;14.38;9.43;;;10.80;72.40;;;;;;2057445;28;20061;-86
2022/03/22 02:42:19;;;;;;;14.15;9.43;;;10.80;72.40;;;;;;2065129;28;20133;-85
2022/03/22 02:43:20;;;;;;;14.02;9.82;;;10.70;72.40;;;;;;2064912;28;20030;-85
2022/03/22 02:44:21;;;;;;;15.32;10.52;;;10.70;72.40;;;;;;2065044;28;20026;-86
2022/03/22 02:45:23;;;;;;;15.98;10.30;;;10.70;72.50;;;;;;2072092;28;20030;-86
2022/03/22 02:46:23;;;;;;;15.02;10.27;;;10.70;72.50;;;;;;2073972;28;20034;-86
2022/03/22 02:47:24;;;;;;;16.15;10.23;;;10.70;72.50;;;;;;2072626;28;20058;-86
2022/03/22 02:48:26;;;;;;;15.38;10.15;;;10.70;72.50;;;;;;2074520;28;20124;-86
2022/03/22 02:49:30;;;;;;;15.25;10.05;;;10.70;72.80;;;;;;2072471;28;20121;-86
2022/03/22 02:50:30;;;;;;;15.50;10.13;;;10.70;72.50;;;;;;2058079;28;20601;-86
2022/03/22 02:51:31;;;;;;;13.80;9.50;;;10.70;72.50;;;;;;2065439;28;20042;-86
2022/03/22 02:52:32;;;;;;;13.88;10.07;;;10.70;72.50;;;;;;2073955;28;20030;-86
2022/03/22 02:53:33;;;;;;;14.90;10.48;;;10.70;72.50;;;;;;2055292;28;20030;-86
2022/03/22 02:54:33;;;;;;;14.80;10.10;;;10.70;72.50;;;;;;2057182;28;20034;-86
2022/03/22 02:55:34;;;;;;;14.98;9.82;;;10.70;72.50;;;;;;2056770;28;20030;-85
2022/03/22 02:56:35;;;;;;;14.32;10.15;;;10.70;72.40;;;;;;2057709;28;20065;-86
2022/03/22 02:57:37;;;;;;;14.18;9.98;;;10.70;72.40;;;;;;2057800;28;20027;-86
2022/03/22 02:58:38;;;;;;;15.55;9.98;;;10.70;72.40;;;;;;2069440;28;20092;-86
2022/03/22 02:59:38;;;;;;;16.52;10.68;;;10.70;72.50;;;;;;2070251;28;20148;-86
2022/03/22 03:00:39;;;;;;;15.23;10.30;;;10.70;72.50;;;;;;2073806;28;20022;-85
2022/03/22 03:01:40;;;;;;;14.63;9.85;;;10.70;72.50;;;;;;2070441;28;20095;-86
2022/03/22 03:02:46;;;;;;;16.30;10.23;;;10.70;72.50;;;;;;2065675;28;20022;-86
2022/03/22 03:03:47;;;;;;;14.45;9.80;;;10.70;72.60;;;;;;2059046;28;20038;-86
2022/03/22 03:04:47;;;;;;;15.02;10.23;;;10.60;72.60;;;;;;2051075;28;20030;-86
2022/03/22 03:05:52;;;;;;;14.93;10.32;;;10.60;72.60;;;;;;2055779;28;20035;-86
2022/03/22 03:06:52;;;;;;;14.02;10.00;;;10.60;72.70;;;;;;2056388;28;20057;-86
2022/03/22 03:07:53;;;;;;;14.23;10.15;;;10.60;72.80;;;;;;2061656;28;20396;-86
2022/03/22 03:08:55;;;;;;;13.98;9.57;;;10.50;72.70;;;;;;2059873;28;20038;-86
2022/03/22 03:09:55;;;;;;;13.05;9.60;;;10.50;72.70;;;;;;2070439;28;20113;-85
2022/03/22 03:10:56;;;;;;;16.33;10.98;;;10.50;72.70;;;;;;2057605;28;20094;-86
2022/03/22 03:11:57;;;;;;;13.35;9.35;;;10.50;72.70;;;;;;2065481;28;20035;-86
2022/03/22 03:13:03;;;;;;;13.65;9.35;;;10.60;72.70;;;;;;2081937;28;20025;-86
2022/03/22 03:14:48;;;;;;;15.98;10.38;;;10.50;72.60;;;;;;2081486;28;20045;-86
2022/03/22 03:15:24;;;;;;;;;;;10.50;73.20;;;;;;2073113;28;20136;-86
2022/03/22 03:16:25;;;;;;;14.98;9.32;;;10.50;72.60;;;;;;2071975;28;19918;-85
2022/03/22 03:17:25;;;;;;;12.13;8.65;;;10.50;72.50;;;;;;2069425;28;20033;-86
2022/03/22 03:18:26;;;;;;;14.40;9.25;;;10.50;72.50;;;;;;2072410;28;20034;-86
2022/03/22 03:19:27;;;;;;;13.95;9.38;;;10.50;72.60;;;;;;2072185;28;20034;-86
2022/03/22 03:20:28;;;;;;;14.10;9.55;;;10.50;72.70;;;;;;2073016;28;20073;-85
2022/03/22 03:21:29;;;;;;;14.95;9.73;;;10.50;72.70;;;;;;2073167;28;20030;-86
2022/03/22 03:22:30;;;;;;;13.38;9.43;;;10.50;72.80;;;;;;2073791;28;20468;-86
2022/03/22 03:23:30;;;;;;;15.23;9.77;;;10.50;72.80;;;;;;2073563;28;20119;-86
2022/03/22 03:24:32;;;;;;;12.93;9.32;;;10.40;72.90;;;;;;2072530;28;20065;-86
2022/03/22 03:25:35;;;;;;;14.93;10.20;;;10.40;72.90;;;;;;2066096;28;20034;-85
2022/03/22 03:26:36;;;;;;;13.82;9.68;;;10.40;73.00;;;;;;2061222;28;20030;-86
2022/03/22 03:27:37;;;;;;;13.95;9.75;;;10.40;73.10;;;;;;2060726;28;20497;-86
2022/03/22 03:28:38;;;;;;;13.02;9.45;;;10.40;73.20;;;;;;2061707;28;20097;-86
2022/03/22 03:29:39;;;;;;;13.50;9.88;;;10.30;73.10;;;;;;2073844;28;20030;-86
2022/03/22 03:30:39;;;;;;;13.23;9.13;;;10.30;73.20;;;;;;2072716;28;20042;-86
2022/03/22 03:31:40;;;;;;;14.57;9.93;;;10.30;73.20;;;;;;2072974;28;20116;-86
2022/03/22 03:32:41;;;;;;;14.18;9.75;;;10.30;73.20;;;;;;2064853;28;20480;-86
2022/03/22 03:33:41;;;;;;;13.00;9.35;;;10.30;73.20;;;;;;2065634;28;20034;-85
2022/03/22 03:34:43;;;;;;;13.30;9.43;;;10.30;73.10;;;;;;2060115;28;20066;-86
2022/03/22 03:35:43;;;;;;;15.48;10.98;;;10.30;73.10;;;;;;2056065;28;20171;-86
2022/03/22 03:36:44;;;;;;;14.95;9.93;;;10.30;73.10;;;;;;2048734;28;20035;-86
2022/03/22 03:37:45;;;;;;;14.68;9.80;;;10.30;73.10;;;;;;2053147;28;20489;-85
2022/03/22 03:38:46;;;;;;;13.68;9.77;;;10.30;73.00;;;;;;2057770;28;20038;-85
2022/03/22 03:39:47;;;;;;;16.10;10.57;;;10.30;73.00;;;;;;2065858;28;20049;-86
2022/03/22 03:42:07;;;;;;;13.15;9.60;;;10.40;73.00;;;;;;2072517;28;20066;-85
2022/03/22 03:43:08;;;;;;;14.80;9.60;;;10.30;73.00;;;;;;2072892;28;20125;-86
2022/03/22 03:47:05;;;;;;;14.35;9.18;;;10.30;73.00;;;;;;2065879;28;20049;-86
2022/03/22 03:48:05;;;;;;;12.95;8.93;;;10.30;73.00;;;;;;2060983;28;20030;-85
2022/03/22 03:49:06;;;;;;;13.77;9.40;;;10.30;72.90;;;;;;2055034;28;20122;-85
2022/03/22 03:50:08;;;;;;;13.60;9.18;;;10.30;72.90;;;;;;2065553;28;20027;-85
2022/03/22 03:51:09;;;;;;;15.25;9.95;;;10.30;72.80;;;;;;2071716;28;20125;-85
2022/03/22 03:52:22;;;;;;;16.83;10.25;;;10.30;72.80;;;;;;2073385;28;20404;-85
2022/03/22 03:53:23;;;;;;;14.82;9.68;;;10.30;72.80;;;;;;2073403;28;20783;-85
2022/03/22 03:54:24;;;;;;;14.48;9.55;;;10.30;72.80;;;;;;2073082;28;20038;-85
2022/03/22 03:55:24;;;;;;;14.20;9.40;;;10.30;72.80;;;;;;2059999;28;20493;-85
2022/03/22 03:56:25;;;;;;;12.77;8.95;;;10.30;72.80;;;;;;2058298;28;20122;-85
2022/03/22 03:57:26;;;;;;;14.02;9.90;;;10.30;72.80;;;;;;2065274;28;20161;-85
2022/03/22 03:58:27;;;;;;;12.98;9.02;;;10.30;72.80;;;;;;2069661;28;20404;-85
2022/03/22 03:59:28;;;;;;;14.52;10.27;;;10.30;72.80;;;;;;2065326;28;20042;-85
2022/03/22 04:00:28;;;;;;;13.40;9.57;;;10.30;72.90;;;;;;2054996;28;20494;-85
2022/03/22 04:01:29;;;;;;;14.30;9.27;;;10.30;72.90;;;;;;2065560;28;20038;-85
2022/03/22 04:02:30;;;;;;;13.68;9.60;;;10.30;73.00;;;;;;2066004;28;20323;-85
2022/03/22 04:03:33;;;;;;;15.32;9.88;;;10.30;73.00;;;;;;2056544;28;20026;-85
2022/03/22 04:04:37;;;;;;;14.50;9.70;;;10.30;73.00;;;;;;2057835;28;20031;-86
2022/03/22 04:05:38;;;;;;;14.93;9.52;;;10.30;72.90;;;;;;2064343;28;20042;-85
2022/03/22 04:06:38;;;;;;;16.25;9.65;;;10.30;72.90;;;;;;2057141;28;20097;-85
2022/03/22 04:07:40;;;;;;;15.02;10.05;;;10.30;72.80;;;;;;2057201;28;20073;-85
2022/03/22 04:08:41;;;;;;;14.60;9.90;;;10.30;72.90;;;;;;2055095;28;20039;-85
2022/03/22 04:09:41;;;;;;;15.90;9.85;;;10.30;72.90;;;;;;2056822;28;20031;-85
2022/03/22 04:10:42;;;;;;;14.98;9.52;;;10.20;72.90;;;;;;2050147;28;20071;-85
2022/03/22 04:11:43;;;;;;;15.05;9.80;;;10.20;72.90;;;;;;2057712;28;20030;-85
2022/03/22 04:12:44;;;;;;;15.23;10.05;;;10.20;73.00;;;;;;2049193;28;20019;-85
2022/03/22 04:13:45;;;;;;;14.82;9.70;;;10.20;73.10;;;;;;2049779;28;20036;-86
2022/03/22 04:14:51;;;;;;;13.68;9.98;;;10.20;73.10;;;;;;2049248;28;20023;-85
2022/03/22 04:15:52;;;;;;;13.65;9.27;;;10.20;73.10;;;;;;2059350;28;20456;-85
2022/03/22 04:16:53;;;;;;;17.20;10.32;;;10.10;73.10;;;;;;2059622;28;20043;-85
2022/03/22 04:17:54;;;;;;;13.82;9.68;;;10.10;73.20;;;;;;2061796;28;20461;-85
2022/03/22 04:18:54;;;;;;;13.95;10.02;;;10.10;73.20;;;;;;2056356;28;20026;-85
2022/03/22 04:19:55;;;;;;;14.00;9.52;;;10.10;73.20;;;;;;2065201;28;20178;-85
2022/03/22 04:20:56;;;;;;;14.40;9.80;;;10.10;73.20;;;;;;2070952;28;20049;-85
2022/03/22 04:21:56;;;;;;;14.15;9.52;;;10.10;73.30;;;;;;2064863;28;20461;-84
2022/03/22 04:22:57;;;;;;;15.25;10.43;;;10.10;73.20;;;;;;2071491;28;20496;-85
2022/03/22 04:23:59;;;;;;;15.77;9.82;;;10.10;73.20;;;;;;2072207;28;20385;-85
2022/03/22 04:25:00;;;;;;;13.25;9.50;;;10.10;73.10;;;;;;2064105;28;20035;-85
2022/03/22 04:26:01;;;;;;;14.93;10.15;;;10.10;73.10;;;;;;2056290;28;20026;-85
2022/03/22 04:33:38;;;;;;;13.55;9.73;;;10.00;73.10;;;;;;2068300;28;20077;-85
2022/03/22 04:34:39;;;;;;;13.20;9.50;;;10.00;73.10;;;;;;2067496;28;20525;-85
2022/03/22 04:35:40;;;;;;;13.40;9.27;;;10.00;73.20;;;;;;2063613;28;20089;-85
2022/03/22 04:36:41;;;;;;;15.25;10.40;;;10.00;73.30;;;;;;2070873;28;20046;-85
2022/03/22 04:37:42;;;;;;;16.00;10.35;;;9.90;73.30;;;;;;2055586;28;20058;-85
2022/03/22 04:38:42;;;;;;;13.57;9.38;;;9.90;73.30;;;;;;2049059;28;20118;-85
2022/03/22 04:39:45;;;;;;;14.77;10.02;;;9.90;73.40;;;;;;2045866;28;20055;-85
2022/03/22 04:40:47;;;;;;;15.32;10.02;;;9.90;73.50;;;;;;2053630;28;20031;-85
2022/03/22 04:41:47;;;;;;;13.50;9.88;;;9.90;73.50;;;;;;2071989;28;20038;-85
2022/03/22 04:42:50;;;;;;;13.75;10.05;;;9.90;73.50;;;;;;2064720;28;20429;-85
2022/03/22 04:43:51;;;;;;;15.50;9.93;;;9.90;73.50;;;;;;2048690;28;20034;-85
2022/03/22 04:44:51;;;;;;;14.15;10.00;;;9.90;74.10;;;;;;2057207;28;20030;-85
2022/03/22 04:45:52;;;;;;;14.68;9.65;;;9.90;73.60;;;;;;2055456;28;20529;-85
2022/03/22 04:46:53;;;;;;;13.88;9.32;;;9.90;73.60;;;;;;2047983;28;20039;-85
2022/03/22 04:47:54;;;;;;;14.30;9.60;;;9.90;73.60;;;;;;2046624;28;20039;-85
2022/03/22 04:48:55;;;;;;;14.82;10.02;;;9.90;73.60;;;;;;2049014;28;20063;-85
2022/03/22 04:49:56;;;;;;;14.25;9.88;;;9.90;73.60;;;;;;2052181;28;20035;-85
2022/03/22 04:57:32;;;;;;;14.90;9.63;;;9.80;73.50;;;;;;2068294;28;20077;-85
2022/03/22 04:58:33;;;;;;;14.45;9.45;;;9.80;73.50;;;;;;2056291;28;20409;-85
2022/03/22 04:59:34;;;;;;;14.43;9.68;;;9.80;73.40;;;;;;2058152;28;20053;-85
2022/03/22 05:00:35;;;;;;;12.90;9.45;;;9.80;73.40;;;;;;2070141;28;20026;-85
2022/03/22 05:01:36;;;;;;;15.80;10.00;;;9.90;73.40;;;;;;2064097;28;20065;-85
2022/03/22 05:02:36;;;;;;;14.80;9.80;;;9.80;73.20;;;;;;2056712;28;20031;-85
2022/03/22 05:03:37;;;;;;;15.18;9.93;;;9.90;73.30;;;;;;2058043;28;20027;-85
2022/03/22 05:04:38;;;;;;;13.88;9.50;;;9.80;73.20;;;;;;2056960;28;20489;-85
2022/03/22 05:06:58;;;;;;;15.13;10.55;;;9.90;73.20;;;;;;2068799;28;20515;-85
2022/03/22 05:07:58;;;;;;;14.70;9.82;;;9.90;73.20;;;;;;2063151;28;20068;-85
2022/03/22 05:08:59;;;;;;;16.85;11.15;;;9.80;73.10;;;;;;2056481;28;20478;-85
2022/03/22 05:10:00;;;;;;;16.02;10.57;;;9.80;73.10;;;;;;2071396;28;20459;-85
2022/03/22 05:11:00;;;;;;;15.15;10.02;;;9.90;73.10;;;;;;2064690;28;20034;-86
2022/03/22 05:12:03;;;;;;;15.00;10.60;;;9.90;73.10;;;;;;2064943;28;20448;-85
2022/03/22 05:13:04;;;;;;;16.70;10.45;;;9.90;73.00;;;;;;2067206;28;20129;-85
2022/03/22 05:14:06;;;;;;;16.35;10.82;;;9.80;73.00;;;;;;2055947;28;20031;-86
2022/03/22 05:15:09;;;;;;;15.13;10.57;;;9.90;73.10;;;;;;2056733;28;20446;-86
2022/03/22 05:16:10;;;;;;;16.63;10.80;;;9.80;73.00;;;;;;2051436;28;20042;-86
2022/03/22 05:17:11;;;;;;;15.63;10.85;;;9.80;73.00;;;;;;2062763;28;20041;-85
2022/03/22 05:18:13;;;;;;;16.77;11.27;;;9.90;73.10;;;;;;2071377;28;20050;-85
2022/03/22 05:19:14;;;;;;;15.00;10.43;;;9.90;73.00;;;;;;2071186;28;20041;-85
2022/03/22 05:20:15;;;;;;;16.38;10.50;;;9.90;73.00;;;;;;2060459;28;20058;-86
2022/03/22 05:21:17;;;;;;;15.38;11.05;;;9.90;73.00;;;;;;2069920;28;20030;-85
2022/03/22 05:22:18;;;;;;;16.65;11.15;;;9.90;73.00;;;;;;2064879;28;20034;-86
2022/03/22 05:23:19;;;;;;;15.75;11.35;;;9.90;73.60;;;;;;2071654;28;20053;-85
2022/03/22 05:24:20;;;;;;;17.15;11.35;;;9.90;72.90;;;;;;2072667;28;20072;-86
2022/03/22 05:25:21;;;;;;;15.35;10.80;;;9.90;72.90;;;;;;2072153;28;20040;-86
2022/03/22 05:26:21;;;;;;;17.38;11.02;;;9.90;72.90;;;;;;2071552;28;20037;-86
2022/03/22 05:27:22;;;;;;;15.98;11.57;;;9.90;72.90;;;;;;2063442;28;20564;-86
2022/03/22 05:28:23;;;;;;;15.48;10.75;;;9.90;72.90;;;;;;2064174;28;20026;-86
2022/03/22 05:29:23;;;;;;;15.50;10.77;;;9.90;72.80;;;;;;2056627;28;20041;-86
2022/03/22 05:30:24;;;;;;;14.93;10.20;;;9.90;72.80;;;;;;2052625;28;20148;-85
2022/03/22 05:31:25;;;;;;;15.13;10.68;;;9.90;72.80;;;;;;2062794;28;20097;-85
2022/03/22 05:32:26;;;;;;;14.82;10.55;;;9.90;72.80;;;;;;2072393;28;20033;-85
2022/03/22 05:33:26;;;;;;;16.63;11.38;;;9.90;72.80;;;;;;2070761;28;20547;-85
2022/03/22 05:34:29;;;;;;;16.17;11.73;;;9.90;72.80;;;;;;2067949;28;20068;-85
2022/03/22 05:35:31;;;;;;;16.35;11.32;;;9.90;72.80;;;;;;2069882;28;20030;-85
2022/03/22 05:36:32;;;;;;;15.07;10.55;;;9.90;72.80;;;;;;2070007;28;20038;-86
2022/03/22 05:37:32;;;;;;;16.10;10.77;;;9.90;72.90;;;;;;2071049;28;22305;-85